createdAt,value
2018-05-31T00:00:54.030Z,19.30
2018-05-31T00:03:21.545Z,19.40
2018-05-31T00:05:49.868Z,19.30
2018-05-31T00:08:17.394Z,19.30
2018-05-31T00:10:44.921Z,19.20
2018-05-31T00:13:12.498Z,19.20
2018-05-31T00:15:40.775Z,19.30
2018-05-31T00:18:08.302Z,19.20
2018-05-31T00:20:35.853Z,19.20
2018-05-31T00:23:03.370Z,19.20
2018-05-31T00:25:30.908Z,19.20
2018-05-31T00:27:59.226Z,19.20
2018-05-31T00:30:26.762Z,19.10
2018-05-31T00:32:54.291Z,19.00
2018-05-31T00:35:22.601Z,19.00
2018-05-31T00:37:50.126Z,19.00
2018-05-31T00:40:17.656Z,19.00
2018-05-31T00:42:45.200Z,19.00
2018-05-31T00:45:12.718Z,18.90
2018-05-31T00:47:41.010Z,18.80
2018-05-31T00:50:08.553Z,18.80
2018-05-31T00:52:36.112Z,18.80
2018-05-31T00:55:04.407Z,18.70
2018-05-31T00:57:31.954Z,18.70
2018-05-31T00:59:59.481Z,18.70
2018-05-31T01:02:27.010Z,18.60
2018-05-31T01:04:54.570Z,18.60
2018-05-31T01:07:22.093Z,18.60
2018-05-31T01:09:49.622Z,18.50
2018-05-31T01:12:17.173Z,18.50
2018-05-31T01:14:44.706Z,18.40
2018-05-31T01:17:12.225Z,18.40
2018-05-31T01:19:39.790Z,18.30
2018-05-31T01:22:07.310Z,18.30
2018-05-31T01:24:34.830Z,18.30
2018-05-31T01:27:02.373Z,18.20
2018-05-31T01:29:29.934Z,18.10
2018-05-31T01:31:58.248Z,18.10
2018-05-31T01:34:25.751Z,18.10
2018-05-31T01:36:53.274Z,18.00
2018-05-31T01:39:20.810Z,18.00
2018-05-31T01:41:48.348Z,18.00
2018-05-31T01:44:15.870Z,18.00
2018-05-31T01:46:44.170Z,17.80
2018-05-31T01:49:11.723Z,17.80
2018-05-31T01:51:39.246Z,17.90
2018-05-31T01:54:06.768Z,17.80
2018-05-31T01:56:34.331Z,17.80
2018-05-31T01:59:01.858Z,17.80
2018-05-31T02:01:29.395Z,17.80
2018-05-31T02:03:57.720Z,17.80
2018-05-31T02:06:25.243Z,17.70
2018-05-31T02:08:53.517Z,17.70
2018-05-31T02:11:21.821Z,17.60
2018-05-31T02:13:49.345Z,17.60
2018-05-31T02:16:16.860Z,17.60
2018-05-31T02:18:44.413Z,17.50
2018-05-31T02:21:11.935Z,17.60
2018-05-31T02:23:40.221Z,17.50
2018-05-31T02:26:07.765Z,17.50
2018-05-31T02:28:36.057Z,17.40
2018-05-31T02:31:03.590Z,17.40
2018-05-31T02:33:31.900Z,17.40
2018-05-31T02:35:59.420Z,17.40
2018-05-31T02:38:27.722Z,17.30
2018-05-31T02:40:55.276Z,17.30
2018-05-31T02:43:23.583Z,17.20
2018-05-31T02:45:51.102Z,17.10
2018-05-31T02:48:19.408Z,17.10
2018-05-31T02:50:46.928Z,17.10
2018-05-31T02:53:14.452Z,17.20
2018-05-31T02:55:42.011Z,17.20
2018-05-31T02:58:09.541Z,17.20
2018-05-31T03:00:37.065Z,17.20
2018-05-31T03:03:04.617Z,17.20
2018-05-31T03:05:32.159Z,17.20
2018-05-31T03:07:59.684Z,17.20
2018-05-31T03:10:27.227Z,17.10
2018-05-31T03:12:54.759Z,17.00
2018-05-31T03:15:22.289Z,17.00
2018-05-31T03:17:49.838Z,16.90
2018-05-31T03:20:17.369Z,16.90
2018-05-31T03:22:44.903Z,16.90
2018-05-31T03:25:13.214Z,16.80
2018-05-31T03:27:40.747Z,16.80
2018-05-31T03:30:08.279Z,16.80
2018-05-31T03:32:35.829Z,16.70
2018-05-31T03:35:03.383Z,16.70
2018-05-31T03:37:30.903Z,16.70
2018-05-31T03:39:58.448Z,16.70
2018-05-31T03:42:26.736Z,16.70
2018-05-31T03:44:54.265Z,16.60
2018-05-31T03:47:22.590Z,16.70
2018-05-31T03:49:50.125Z,16.70
2018-05-31T03:52:17.669Z,16.70
2018-05-31T03:54:45.976Z,16.60
2018-05-31T03:57:13.515Z,16.60
2018-05-31T03:59:41.047Z,16.60
2018-05-31T04:02:08.594Z,16.60
2018-05-31T04:04:36.129Z,16.70
2018-05-31T04:07:03.651Z,16.70
2018-05-31T04:09:32.093Z,16.70
2018-05-31T04:11:59.645Z,16.70
2018-05-31T04:14:27.178Z,16.70
2018-05-31T04:16:54.737Z,16.70
2018-05-31T04:19:22.274Z,16.80
2018-05-31T04:21:49.800Z,16.90
2018-05-31T04:24:18.851Z,16.90
2018-05-31T04:26:46.370Z,16.90
2018-05-31T04:29:14.661Z,17.00
2018-05-31T04:31:42.218Z,16.90
2018-05-31T04:34:10.505Z,17.00
2018-05-31T04:36:38.031Z,17.00
2018-05-31T04:39:06.361Z,17.10
2018-05-31T04:41:33.888Z,17.10
2018-05-31T04:44:01.422Z,17.20
2018-05-31T04:46:28.975Z,17.20
2018-05-31T04:48:56.504Z,17.10
2018-05-31T04:51:24.038Z,17.20
2018-05-31T04:53:51.611Z,17.30
2018-05-31T04:56:19.151Z,17.30
2018-05-31T04:58:46.685Z,17.30
2018-05-31T05:01:15.002Z,17.50
2018-05-31T05:03:42.527Z,17.50
2018-05-31T05:06:10.823Z,17.50
2018-05-31T05:08:38.384Z,17.50
2018-05-31T05:11:05.904Z,17.60
2018-05-31T05:13:34.198Z,17.70
2018-05-31T05:16:02.522Z,17.70
2018-05-31T05:18:30.044Z,17.80
2018-05-31T05:20:57.557Z,17.80
2018-05-31T05:23:25.096Z,17.90
2018-05-31T05:25:52.616Z,18.00
2018-05-31T05:28:20.155Z,18.10
2018-05-31T05:30:48.479Z,18.20
2018-05-31T05:33:16.024Z,18.20
2018-05-31T05:35:43.548Z,18.30
2018-05-31T05:38:11.106Z,18.30
2018-05-31T05:40:39.397Z,18.50
2018-05-31T05:43:07.691Z,18.60
2018-05-31T05:45:35.241Z,18.60
2018-05-31T05:48:02.803Z,18.70
2018-05-31T05:50:31.068Z,18.90
2018-05-31T05:52:59.386Z,19.00
2018-05-31T05:55:26.917Z,19.00
2018-05-31T05:57:54.445Z,19.10
2018-05-31T06:00:21.999Z,19.20
2018-05-31T06:02:49.530Z,19.30
2018-05-31T06:05:17.054Z,19.40
2018-05-31T06:07:44.661Z,19.50
2018-05-31T06:10:12.330Z,19.50
2018-05-31T06:12:40.580Z,19.70
2018-05-31T06:15:08.128Z,19.70
2018-05-31T06:17:35.666Z,19.70
2018-05-31T06:20:03.204Z,19.90
2018-05-31T06:22:31.506Z,20.10
2018-05-31T06:24:59.024Z,20.10
2018-05-31T06:27:26.539Z,20.20
2018-05-31T06:29:54.090Z,20.10
2018-05-31T06:32:21.627Z,20.30
2018-05-31T06:34:49.938Z,20.40
2018-05-31T06:37:17.481Z,20.40
2018-05-31T06:39:44.997Z,20.50
2018-05-31T06:42:12.507Z,20.60
2018-05-31T06:44:40.037Z,20.50
2018-05-31T06:47:08.306Z,20.80
2018-05-31T06:49:35.839Z,20.80
2018-05-31T06:52:03.374Z,20.90
2018-05-31T06:54:30.908Z,21.00
2018-05-31T06:56:59.190Z,21.30
2018-05-31T06:59:26.726Z,21.30
2018-05-31T07:01:55.001Z,21.40
2018-05-31T07:04:23.291Z,21.50
2018-05-31T07:06:51.647Z,21.70
2018-05-31T07:09:19.131Z,21.60
2018-05-31T07:11:47.427Z,21.90
2018-05-31T07:14:14.981Z,21.90
2018-05-31T07:16:42.506Z,22.00
2018-05-31T07:19:10.185Z,22.20
2018-05-31T07:21:38.495Z,22.40
2018-05-31T07:24:06.020Z,22.40
2018-05-31T07:26:33.541Z,22.50
2018-05-31T07:29:01.094Z,22.60
2018-05-31T07:31:28.626Z,22.40
2018-05-31T07:33:56.133Z,22.60
2018-05-31T07:36:24.432Z,23.10
2018-05-31T07:38:52.742Z,23.30
2018-05-31T07:41:20.282Z,23.30
2018-05-31T07:43:47.834Z,23.50
2018-05-31T07:46:15.341Z,23.80
2018-05-31T07:48:42.853Z,24.10
2018-05-31T07:51:10.406Z,24.60
2018-05-31T07:53:38.686Z,25.70
2018-05-31T07:56:06.194Z,25.70
2018-05-31T07:58:33.736Z,26.50
2018-05-31T08:01:01.245Z,27.50
2018-05-31T08:03:29.525Z,29.10
2018-05-31T08:05:57.868Z,28.70
2018-05-31T08:08:25.345Z,28.60
2018-05-31T08:10:52.870Z,29.70
2018-05-31T08:13:20.415Z,31.00
2018-05-31T08:15:47.933Z,31.40
2018-05-31T08:18:15.483Z,31.60
2018-05-31T08:20:43.236Z,32.20
2018-05-31T08:23:10.722Z,33.50
2018-05-31T08:25:40.127Z,32.30
2018-05-31T08:28:08.425Z,33.50
2018-05-31T08:30:35.955Z,33.50
2018-05-31T08:33:04.251Z,34.80
2018-05-31T08:35:32.751Z,34.80
2018-05-31T08:38:00.301Z,34.20
2018-05-31T08:40:27.823Z,35.40
2018-05-31T08:42:55.751Z,34.90
2018-05-31T08:45:23.267Z,35.10
2018-05-31T08:47:51.549Z,34.40
2018-05-31T08:50:19.094Z,34.30
2018-05-31T08:52:47.526Z,36.60
2018-05-31T08:55:15.029Z,36.60
2018-05-31T08:57:43.351Z,37.10
2018-05-31T09:00:10.874Z,37.00
2018-05-31T09:02:39.160Z,36.40
2018-05-31T09:05:06.703Z,36.40
2018-05-31T09:07:34.986Z,36.90
2018-05-31T09:10:03.257Z,37.40
2018-05-31T09:12:31.560Z,37.20
2018-05-31T09:14:59.073Z,37.20
2018-05-31T09:17:27.362Z,37.50
2018-05-31T09:19:55.675Z,37.90
2018-05-31T09:22:23.176Z,37.90
2018-05-31T09:24:50.698Z,37.70
2018-05-31T09:27:18.235Z,37.90
2018-05-31T09:29:45.762Z,38.10
2018-05-31T09:32:13.278Z,36.20
2018-05-31T09:34:40.813Z,36.70
2018-05-31T09:37:09.275Z,35.70
2018-05-31T09:39:37.554Z,37.70
2018-05-31T09:42:05.865Z,38.10
2018-05-31T09:44:33.390Z,38.10
2018-05-31T09:47:00.920Z,37.80
2018-05-31T09:49:28.449Z,37.90
2018-05-31T09:51:55.965Z,37.80
2018-05-31T09:54:24.249Z,38.10
2018-05-31T09:56:52.551Z,37.60
2018-05-31T09:59:20.068Z,37.60
2018-05-31T10:01:48.336Z,37.00
2018-05-31T10:04:15.882Z,36.90
2018-05-31T10:06:43.393Z,37.00
2018-05-31T10:09:10.924Z,35.70
2018-05-31T10:11:39.236Z,37.10
2018-05-31T10:14:06.744Z,37.10
2018-05-31T10:16:35.022Z,37.00
2018-05-31T10:19:02.567Z,36.90
2018-05-31T10:21:30.087Z,37.00
2018-05-31T10:23:57.596Z,35.40
2018-05-31T10:26:25.124Z,36.10
2018-05-31T10:28:52.646Z,36.20
2018-05-31T10:31:20.169Z,36.10
2018-05-31T10:33:47.700Z,36.20
2018-05-31T10:36:15.225Z,36.40
2018-05-31T10:38:42.751Z,36.20
2018-05-31T10:41:10.291Z,35.70
2018-05-31T10:43:37.832Z,35.90
2018-05-31T10:46:05.340Z,35.60
2018-05-31T10:48:33.646Z,36.00
2018-05-31T10:51:01.164Z,36.00
2018-05-31T10:53:28.678Z,35.60
2018-05-31T10:55:56.228Z,35.40
2018-05-31T10:58:23.755Z,34.60
2018-05-31T11:00:51.287Z,35.10
2018-05-31T11:03:18.838Z,35.20
2018-05-31T11:05:46.363Z,35.30
2018-05-31T11:08:13.901Z,35.70
2018-05-31T11:10:41.431Z,35.70
2018-05-31T11:13:08.948Z,35.40
2018-05-31T11:15:36.474Z,35.40
2018-05-31T11:18:04.773Z,35.30
2018-05-31T11:20:32.280Z,35.30
2018-05-31T11:22:59.784Z,35.50
2018-05-31T11:25:27.342Z,35.70
2018-05-31T11:27:54.858Z,35.20
2018-05-31T11:30:22.365Z,35.10
2018-05-31T11:32:49.907Z,34.70
2018-05-31T11:35:17.409Z,34.90
2018-05-31T11:37:44.948Z,34.40
2018-05-31T11:40:12.485Z,34.80
2018-05-31T11:42:40.011Z,34.80
2018-05-31T11:45:07.540Z,35.00
2018-05-31T11:47:35.081Z,35.20
2018-05-31T11:50:02.589Z,35.00
2018-05-31T11:52:30.115Z,35.10
2018-05-31T11:54:57.661Z,34.90
2018-05-31T11:57:25.183Z,35.10
2018-05-31T11:59:53.470Z,35.70
2018-05-31T12:02:21.016Z,35.60
2018-05-31T12:04:49.288Z,36.40
2018-05-31T12:07:17.571Z,35.80
2018-05-31T12:09:45.890Z,35.50
2018-05-31T12:12:13.407Z,35.50
2018-05-31T12:14:41.698Z,35.30
2018-05-31T12:17:09.225Z,35.30
2018-05-31T12:19:36.731Z,35.10
2018-05-31T12:22:04.250Z,35.20
2018-05-31T12:24:32.562Z,34.70
2018-05-31T12:27:00.085Z,34.70
2018-05-31T12:29:28.372Z,35.70
2018-05-31T12:31:56.664Z,35.40
2018-05-31T12:34:24.182Z,35.40
2018-05-31T12:36:52.499Z,35.70
2018-05-31T12:39:20.032Z,35.70
2018-05-31T12:41:48.311Z,36.20
2018-05-31T12:44:16.593Z,36.50
2018-05-31T12:46:44.893Z,36.30
2018-05-31T12:49:12.399Z,36.30
2018-05-31T12:51:39.914Z,36.20
2018-05-31T12:54:07.463Z,36.20
2018-05-31T12:56:34.974Z,36.50
2018-05-31T12:59:02.488Z,36.40
2018-05-31T13:01:30.028Z,36.70
2018-05-31T13:03:57.558Z,36.80
2018-05-31T13:06:25.065Z,36.50
2018-05-31T13:08:52.607Z,36.70
2018-05-31T13:11:20.117Z,36.90
2018-05-31T13:13:47.642Z,37.00
2018-05-31T13:16:15.175Z,37.40
2018-05-31T13:18:43.490Z,36.70
2018-05-31T13:21:10.987Z,36.70
2018-05-31T13:23:38.517Z,37.20
2018-05-31T13:26:06.036Z,37.50
2018-05-31T13:28:33.557Z,37.70
2018-05-31T13:31:01.095Z,37.20
2018-05-31T13:33:28.676Z,36.90
2018-05-31T13:35:56.183Z,36.30
2018-05-31T13:38:23.726Z,36.20
2018-05-31T13:40:51.256Z,36.60
2018-05-31T13:43:18.781Z,37.40
2018-05-31T13:45:46.311Z,38.20
2018-05-31T13:48:13.827Z,37.60
2018-05-31T13:50:41.360Z,37.70
2018-05-31T13:53:08.912Z,37.20
2018-05-31T13:55:36.420Z,36.40
2018-05-31T13:58:04.694Z,35.20
2018-05-31T14:00:33.004Z,34.30
2018-05-31T14:03:00.522Z,34.30
2018-05-31T14:05:28.056Z,33.40
2018-05-31T14:07:55.604Z,33.50
2018-05-31T14:10:23.128Z,32.90
2018-05-31T14:12:50.652Z,32.10
2018-05-31T14:15:18.195Z,32.10
2018-05-31T14:17:45.718Z,32.50
2018-05-31T14:20:13.247Z,31.60
2018-05-31T14:22:41.569Z,32.10
2018-05-31T14:25:09.072Z,32.00
2018-05-31T14:27:36.599Z,31.50
2018-05-31T14:30:04.134Z,31.60
2018-05-31T14:32:31.649Z,31.50
2018-05-31T14:34:59.170Z,31.70
2018-05-31T14:37:26.698Z,32.20
2018-05-31T14:39:54.214Z,33.40
2018-05-31T14:42:21.732Z,33.30
2018-05-31T14:44:49.262Z,33.90
2018-05-31T14:47:17.545Z,35.70
2018-05-31T14:49:45.073Z,35.70
2018-05-31T14:52:12.610Z,36.00
2018-05-31T14:54:40.118Z,33.90
2018-05-31T14:57:07.654Z,33.20
2018-05-31T14:59:35.966Z,32.50
2018-05-31T15:02:03.478Z,32.50
2018-05-31T15:04:31.097Z,32.60
2018-05-31T15:06:58.649Z,31.80
2018-05-31T15:09:26.170Z,31.20
2018-05-31T15:11:54.458Z,29.90
2018-05-31T15:14:22.775Z,29.20
2018-05-31T15:16:50.323Z,29.20
2018-05-31T15:19:18.574Z,28.80
2018-05-31T15:21:46.887Z,28.80
2018-05-31T15:24:14.397Z,28.80
2018-05-31T15:26:42.665Z,28.20
2018-05-31T15:29:10.209Z,28.20
2018-05-31T15:31:38.488Z,28.00
2018-05-31T15:34:06.037Z,27.90
2018-05-31T15:36:35.081Z,27.70
2018-05-31T15:39:02.598Z,27.80
2018-05-31T15:41:31.632Z,27.50
2018-05-31T15:43:59.177Z,27.50
2018-05-31T15:46:27.452Z,27.40
2018-05-31T15:48:55.746Z,27.00
2018-05-31T15:51:23.287Z,27.00
2018-05-31T15:53:50.834Z,26.90
2018-05-31T15:56:18.345Z,26.60
2018-05-31T15:58:45.890Z,26.70
2018-05-31T16:01:13.410Z,26.10
2018-05-31T16:03:40.938Z,25.30
2018-05-31T16:06:08.492Z,25.00
2018-05-31T16:08:36.056Z,25.10
2018-05-31T16:11:03.544Z,25.10
2018-05-31T16:13:31.074Z,24.90
2018-05-31T16:15:58.602Z,25.00
2018-05-31T16:18:26.188Z,24.60
2018-05-31T16:20:53.743Z,24.30
2018-05-31T16:23:21.267Z,24.00
2018-05-31T16:25:48.785Z,24.00
2018-05-31T16:28:16.321Z,24.30
2018-05-31T16:30:43.828Z,24.20
2018-05-31T16:33:12.097Z,24.10
2018-05-31T16:35:40.406Z,24.10
2018-05-31T16:38:07.916Z,24.00
2018-05-31T16:40:35.424Z,24.00
2018-05-31T16:43:02.970Z,23.90
2018-05-31T16:45:30.509Z,24.00
2018-05-31T16:47:59.177Z,23.70
2018-05-31T16:50:26.709Z,23.70
2018-05-31T16:52:54.226Z,23.20
2018-05-31T16:55:22.509Z,22.70
2018-05-31T16:57:53.506Z,22.60
2018-05-31T17:00:22.702Z,22.70
2018-05-31T17:02:50.281Z,22.20
2018-05-31T17:05:18.585Z,21.70
2018-05-31T17:07:46.865Z,21.70
2018-05-31T17:10:14.381Z,21.70
2018-05-31T17:12:41.917Z,21.40
2018-05-31T17:15:09.449Z,20.90
2018-05-31T17:17:36.968Z,21.00
2018-05-31T17:20:04.516Z,21.20
2018-05-31T17:22:32.029Z,21.00
2018-05-31T17:24:59.541Z,20.90
2018-05-31T17:27:27.847Z,19.80
2018-05-31T17:29:55.559Z,19.80
2018-05-31T17:32:23.073Z,19.50
2018-05-31T17:34:50.631Z,19.20
2018-05-31T17:37:18.181Z,19.50
2018-05-31T17:39:46.476Z,19.70
2018-05-31T17:42:14.023Z,19.60
2018-05-31T17:44:41.559Z,19.70
2018-05-31T17:47:09.849Z,19.60
2018-05-31T17:49:38.152Z,19.50
2018-05-31T17:52:05.661Z,19.50
2018-05-31T17:54:33.177Z,19.60
2018-05-31T17:57:00.708Z,19.70
2018-05-31T17:59:28.231Z,19.70
2018-05-31T18:01:55.758Z,19.70
2018-05-31T18:04:23.311Z,19.60
2018-05-31T18:06:50.843Z,19.60
2018-05-31T18:09:18.357Z,19.60
2018-05-31T18:11:45.888Z,19.60
2018-05-31T18:14:13.418Z,19.50
2018-05-31T18:16:41.711Z,19.50
2018-05-31T18:19:09.245Z,19.50
2018-05-31T18:21:37.521Z,19.40
2018-05-31T18:24:05.806Z,19.40
2018-05-31T18:26:34.105Z,19.50
2018-05-31T18:29:01.630Z,19.50
2018-05-31T18:31:29.944Z,19.50
2018-05-31T18:33:57.475Z,19.50
2018-05-31T18:36:25.754Z,19.50
2018-05-31T18:38:54.034Z,19.50
2018-05-31T18:41:21.569Z,19.40
2018-05-31T18:43:49.089Z,19.50
2018-05-31T18:46:16.596Z,19.50
2018-05-31T18:48:44.892Z,19.40
2018-05-31T18:51:27.301Z,19.40
2018-05-31T18:53:54.851Z,19.40
2018-05-31T18:56:22.362Z,19.40
2018-05-31T18:58:49.876Z,19.40
2018-05-31T19:01:17.430Z,19.50
2018-05-31T19:03:44.942Z,19.40
2018-05-31T19:06:12.457Z,19.30
2018-05-31T19:08:40.002Z,19.40
2018-05-31T19:11:07.513Z,19.20
2018-05-31T19:13:40.910Z,19.30
2018-05-31T19:16:08.440Z,19.00
2018-05-31T19:18:41.621Z,18.70
2018-05-31T19:21:09.192Z,18.80
2018-05-31T19:23:36.798Z,18.60
2018-05-31T19:26:04.320Z,18.50
2018-05-31T19:28:31.825Z,18.60
2018-05-31T19:31:05.891Z,18.90
2018-05-31T19:33:33.404Z,18.90
2018-05-31T19:36:07.547Z,18.60
2018-05-31T19:38:35.112Z,18.60
2018-05-31T19:41:02.627Z,18.60
2018-05-31T19:43:36.550Z,18.50
2018-05-31T19:46:04.858Z,18.40
2018-05-31T19:48:32.383Z,18.40
2018-05-31T19:51:00.691Z,18.20
2018-05-31T19:53:33.956Z,18.20
2018-05-31T19:56:02.364Z,18.20
2018-05-31T19:58:35.581Z,18.10
2018-05-31T20:01:08.939Z,18.10
2018-05-31T20:03:37.070Z,18.10
2018-05-31T20:06:04.591Z,17.90
2018-05-31T20:08:32.124Z,18.00
2018-05-31T20:10:59.652Z,17.90
2018-05-31T20:13:27.152Z,17.90
2018-05-31T20:15:54.698Z,17.90
2018-05-31T20:18:22.222Z,17.90
2018-05-31T20:20:49.755Z,17.80
2018-05-31T20:23:17.292Z,17.80
2018-05-31T20:25:44.820Z,17.90
2018-05-31T20:28:13.105Z,17.90
2018-05-31T20:30:40.673Z,17.90
2018-05-31T20:33:08.966Z,18.00
2018-05-31T20:35:36.477Z,18.00
2018-05-31T20:38:04.795Z,17.90
2018-05-31T20:40:32.326Z,17.90
2018-05-31T20:43:00.604Z,17.80
2018-05-31T20:45:28.911Z,17.90
2018-05-31T20:47:56.431Z,17.90
2018-05-31T20:50:24.700Z,17.90
2018-05-31T20:52:53.010Z,17.80
2018-05-31T20:55:20.526Z,17.80
2018-05-31T20:57:48.160Z,17.80
2018-05-31T21:00:15.689Z,17.90
2018-05-31T21:02:43.203Z,17.70
2018-05-31T21:05:10.727Z,17.70
2018-05-31T21:07:38.270Z,17.70
2018-05-31T21:10:05.782Z,17.80
2018-05-31T21:12:33.297Z,17.80
2018-05-31T21:15:00.883Z,17.80
2018-05-31T21:17:28.462Z,17.80
2018-05-31T21:19:57.503Z,17.80
2018-05-31T21:22:25.051Z,17.80
2018-05-31T21:24:52.576Z,17.80
2018-05-31T21:27:20.819Z,17.80
2018-05-31T21:29:48.353Z,17.80
2018-05-31T21:32:15.868Z,17.90
2018-05-31T21:34:43.392Z,17.90
2018-05-31T21:37:10.938Z,17.90
2018-05-31T21:39:38.463Z,17.90
2018-05-31T21:42:06.743Z,17.90
2018-05-31T21:44:34.273Z,17.90
2018-05-31T21:47:01.790Z,17.90
2018-05-31T21:49:29.305Z,17.90
2018-05-31T21:51:57.619Z,17.80
2018-05-31T21:54:25.160Z,17.80
2018-05-31T21:56:53.425Z,17.90
2018-05-31T21:59:21.730Z,17.90
2018-05-31T22:01:49.243Z,17.80
2018-05-31T22:04:16.748Z,17.80
2018-05-31T22:06:44.291Z,17.80
2018-05-31T22:09:11.807Z,17.90
2018-05-31T22:11:39.329Z,17.80
2018-05-31T22:14:06.874Z,17.80
2018-05-31T22:16:34.386Z,17.70
2018-05-31T22:19:01.898Z,17.70
2018-05-31T22:21:29.428Z,17.80
2018-05-31T22:23:57.714Z,17.70
2018-05-31T22:26:25.228Z,17.70
2018-05-31T22:28:52.767Z,17.70
2018-05-31T22:31:20.282Z,17.70
2018-05-31T22:33:48.562Z,17.60
2018-05-31T22:36:16.857Z,17.60
2018-05-31T22:38:44.374Z,17.60
2018-05-31T22:41:11.903Z,17.60
2018-05-31T22:43:39.445Z,17.60
2018-05-31T22:46:06.959Z,17.60
2018-05-31T22:48:35.235Z,17.60
2018-05-31T22:51:03.551Z,17.60
2018-05-31T22:53:31.074Z,17.60
2018-05-31T22:55:59.359Z,17.60
2018-05-31T22:58:27.656Z,17.60
2018-05-31T23:00:55.168Z,17.60
2018-05-31T23:03:22.676Z,17.60
2018-05-31T23:05:50.209Z,17.50
2018-05-31T23:08:18.486Z,17.50
2018-05-31T23:10:46.000Z,17.50
2018-05-31T23:13:13.538Z,17.50
2018-05-31T23:15:41.054Z,17.30
2018-05-31T23:18:09.322Z,17.20
2018-05-31T23:20:37.626Z,17.20
2018-05-31T23:23:05.148Z,17.10
2018-05-31T23:25:32.671Z,17.00
2018-05-31T23:28:00.205Z,16.90
2018-05-31T23:30:27.727Z,17.10
2018-05-31T23:32:55.343Z,17.20
2018-05-31T23:35:22.886Z,17.20
2018-05-31T23:37:50.402Z,17.00
2018-05-31T23:40:18.019Z,17.10
2018-05-31T23:42:45.563Z,17.10
2018-05-31T23:45:13.068Z,17.10
2018-05-31T23:47:40.586Z,17.20
2018-05-31T23:50:08.117Z,17.20
2018-05-31T23:52:36.399Z,16.90
2018-05-31T23:55:04.672Z,16.90
2018-05-31T23:57:33.194Z,16.90
